sensor_id;sensor_type;location;lat;lon;timestamp;temperature;humidity
52435;DHT22;38354;52.892;6.148;2023-06-01T03:00:24;11.90;99.90
52435;DHT22;38354;52.892;6.148;2023-06-01T03:02:50;11.90;99.90
52435;DHT22;38354;52.892;6.148;2023-06-01T03:05:18;11.90;99.90
52435;DHT22;38354;52.892;6.148;2023-06-01T03:07:47;12.00;99.90
52435;DHT22;38354;52.892;6.148;2023-06-01T03:10:12;12.00;99.90
52435;DHT22;38354;52.892;6.148;2023-06-01T03:12:38;12.00;99.90
52435;DHT22;38354;52.892;6.148;2023-06-01T03:15:05;12.00;99.90
52435;DHT22;38354;52.892;6.148;2023-06-01T03:17:31;12.00;99.90
52435;DHT22;38354;52.892;6.148;2023-06-01T03:19:57;12.00;99.90
52435;DHT22;38354;52.892;6.148;2023-06-01T03:22:23;11.90;99.90
52435;DHT22;38354;52.892;6.148;2023-06-01T03:24:49;11.90;99.90
52435;DHT22;38354;52.892;6.148;2023-06-01T03:27:16;11.80;99.90
52435;DHT22;38354;52.892;6.148;2023-06-01T03:29:41;11.80;99.90
52435;DHT22;38354;52.892;6.148;2023-06-01T03:32:10;11.80;99.90
52435;DHT22;38354;52.892;6.148;2023-06-01T03:34:36;11.90;99.90
52435;DHT22;38354;52.892;6.148;2023-06-01T03:37:06;11.90;99.90
52435;DHT22;38354;52.892;6.148;2023-06-01T03:39:33;11.90;99.90
52435;DHT22;38354;52.892;6.148;2023-06-01T03:42:00;11.90;99.90
52435;DHT22;38354;52.892;6.148;2023-06-01T03:44:26;11.90;99.90
52435;DHT22;38354;52.892;6.148;2023-06-01T03:46:51;11.80;99.90
52435;DHT22;38354;52.892;6.148;2023-06-01T03:49:17;11.80;99.90
52435;DHT22;38354;52.892;6.148;2023-06-01T03:51:43;11.80;99.90
52435;DHT22;38354;52.892;6.148;2023-06-01T03:54:08;11.80;99.90
52435;DHT22;38354;52.892;6.148;2023-06-01T03:56:34;11.80;99.90
52435;DHT22;38354;52.892;6.148;2023-06-01T03:59:01;11.90;99.90
52435;DHT22;38354;52.892;6.148;2023-06-01T04:01:27;11.90;99.90
52435;DHT22;38354;52.892;6.148;2023-06-01T04:03:57;11.90;99.90
52435;DHT22;38354;52.892;6.148;2023-06-01T04:06:23;11.90;99.90
52435;DHT22;38354;52.892;6.148;2023-06-01T04:08:50;11.90;99.90
52435;DHT22;38354;52.892;6.148;2023-06-01T04:11:21;11.90;99.90
52435;DHT22;38354;52.892;6.148;2023-06-01T04:13:47;11.90;99.90
52435;DHT22;38354;52.892;6.148;2023-06-01T04:16:14;11.90;99.90
52435;DHT22;38354;52.892;6.148;2023-06-01T04:18:40;11.90;99.90
52435;DHT22;38354;52.892;6.148;2023-06-01T04:21:06;11.90;99.90
52435;DHT22;38354;52.892;6.148;2023-06-01T04:23:34;11.90;99.90
52435;DHT22;38354;52.892;6.148;2023-06-01T04:26:01;11.90;99.90
52435;DHT22;38354;52.892;6.148;2023-06-01T04:28:28;11.90;99.90
52435;DHT22;38354;52.892;6.148;2023-06-01T04:30:55;11.90;99.90
52435;DHT22;38354;52.892;6.148;2023-06-01T04:33:21;11.90;99.90
52435;DHT22;38354;52.892;6.148;2023-06-01T04:35:50;11.90;99.90
52435;DHT22;38354;52.892;6.148;2023-06-01T04:38:19;12.00;99.90
52435;DHT22;38354;52.892;6.148;2023-06-01T04:40:44;11.90;99.90
52435;DHT22;38354;52.892;6.148;2023-06-01T04:43:11;12.00;99.90
52435;DHT22;38354;52.892;6.148;2023-06-01T04:45:38;12.00;99.90
52435;DHT22;38354;52.892;6.148;2023-06-01T04:48:07;12.00;99.90
52435;DHT22;38354;52.892;6.148;2023-06-01T04:50:37;12.00;99.90
52435;DHT22;38354;52.892;6.148;2023-06-01T04:53:03;12.00;99.90
52435;DHT22;38354;52.892;6.148;2023-06-01T04:55:29;12.00;99.90
52435;DHT22;38354;52.892;6.148;2023-06-01T04:57:55;12.00;99.90
52435;DHT22;38354;52.892;6.148;2023-06-01T05:00:21;12.00;99.90
52435;DHT22;38354;52.892;6.148;2023-06-01T05:02:47;11.90;99.90
52435;DHT22;38354;52.892;6.148;2023-06-01T05:05:16;12.00;99.90
52435;DHT22;38354;52.892;6.148;2023-06-01T05:07:42;12.00;99.90
52435;DHT22;38354;52.892;6.148;2023-06-01T05:10:09;12.10;99.90
52435;DHT22;38354;52.892;6.148;2023-06-01T05:12:36;12.10;99.90
52435;DHT22;38354;52.892;6.148;2023-06-01T05:15:06;12.20;99.90
52435;DHT22;38354;52.892;6.148;2023-06-01T05:17:33;12.20;99.90
52435;DHT22;38354;52.892;6.148;2023-06-01T05:19:58;12.10;99.90
52435;DHT22;38354;52.892;6.148;2023-06-01T05:22:24;12.10;99.90
52435;DHT22;38354;52.892;6.148;2023-06-01T05:24:51;12.10;99.90
52435;DHT22;38354;52.892;6.148;2023-06-01T05:27:17;12.10;99.90
52435;DHT22;38354;52.892;6.148;2023-06-01T05:29:43;12.10;99.90
52435;DHT22;38354;52.892;6.148;2023-06-01T05:32:08;12.10;99.90
52435;DHT22;38354;52.892;6.148;2023-06-01T05:34:35;12.10;99.90
52435;DHT22;38354;52.892;6.148;2023-06-01T05:37:01;12.10;99.90
52435;DHT22;38354;52.892;6.148;2023-06-01T05:39:27;12.10;99.90
52435;DHT22;38354;52.892;6.148;2023-06-01T05:41:57;12.10;99.90
52435;DHT22;38354;52.892;6.148;2023-06-01T05:44:24;12.20;99.90
52435;DHT22;38354;52.892;6.148;2023-06-01T05:46:50;12.20;99.90
52435;DHT22;38354;52.892;6.148;2023-06-01T05:49:18;12.20;99.90
52435;DHT22;38354;52.892;6.148;2023-06-01T05:51:44;12.30;99.90
52435;DHT22;38354;52.892;6.148;2023-06-01T05:54:12;12.20;99.90
52435;DHT22;38354;52.892;6.148;2023-06-01T05:56:37;12.30;99.90
52435;DHT22;38354;52.892;6.148;2023-06-01T05:59:04;12.30;99.90
52435;DHT22;38354;52.892;6.148;2023-06-01T06:01:30;12.30;99.90
52435;DHT22;38354;52.892;6.148;2023-06-01T06:03:55;12.30;99.90
52435;DHT22;38354;52.892;6.148;2023-06-01T06:06:22;12.30;99.90
52435;DHT22;38354;52.892;6.148;2023-06-01T06:08:49;12.30;99.90
52435;DHT22;38354;52.892;6.148;2023-06-01T06:11:15;12.30;99.90
52435;DHT22;38354;52.892;6.148;2023-06-01T06:13:40;12.30;99.90
52435;DHT22;38354;52.892;6.148;2023-06-01T06:16:06;12.30;99.90
52435;DHT22;38354;52.892;6.148;2023-06-01T06:18:31;12.30;99.90
52435;DHT22;38354;52.892;6.148;2023-06-01T06:20:57;12.40;99.90
52435;DHT22;38354;52.892;6.148;2023-06-01T06:23:23;12.40;99.90
52435;DHT22;38354;52.892;6.148;2023-06-01T06:25:49;12.50;99.90
52435;DHT22;38354;52.892;6.148;2023-06-01T06:28:15;12.50;99.90
52435;DHT22;38354;52.892;6.148;2023-06-01T06:30:41;12.50;99.90
52435;DHT22;38354;52.892;6.148;2023-06-01T06:33:06;12.50;99.90
52435;DHT22;38354;52.892;6.148;2023-06-01T06:35:32;12.50;99.90
52435;DHT22;38354;52.892;6.148;2023-06-01T06:37:58;12.60;99.90
52435;DHT22;38354;52.892;6.148;2023-06-01T06:40:24;12.50;99.90
52435;DHT22;38354;52.892;6.148;2023-06-01T06:42:49;12.50;99.90
52435;DHT22;38354;52.892;6.148;2023-06-01T06:45:16;12.50;99.90
52435;DHT22;38354;52.892;6.148;2023-06-01T06:47:42;12.50;99.90
52435;DHT22;38354;52.892;6.148;2023-06-01T06:50:11;12.50;99.90
52435;DHT22;38354;52.892;6.148;2023-06-01T06:52:37;12.50;99.90
52435;DHT22;38354;52.892;6.148;2023-06-01T06:55:03;12.50;99.90
52435;DHT22;38354;52.892;6.148;2023-06-01T06:57:28;12.60;99.90
52435;DHT22;38354;52.892;6.148;2023-06-01T06:59:54;12.60;99.90
52435;DHT22;38354;52.892;6.148;2023-06-01T07:02:20;12.60;99.90
52435;DHT22;38354;52.892;6.148;2023-06-01T07:04:45;12.70;99.90
52435;DHT22;38354;52.892;6.148;2023-06-01T07:07:11;12.70;99.90
52435;DHT22;38354;52.892;6.148;2023-06-01T07:09:36;12.70;99.90
52435;DHT22;38354;52.892;6.148;2023-06-01T07:12:02;12.70;99.90
52435;DHT22;38354;52.892;6.148;2023-06-01T07:14:28;12.70;99.90
52435;DHT22;38354;52.892;6.148;2023-06-01T07:16:54;12.80;99.90
52435;DHT22;38354;52.892;6.148;2023-06-01T07:19:19;12.80;99.90
52435;DHT22;38354;52.892;6.148;2023-06-01T07:21:45;12.90;99.90
52435;DHT22;38354;52.892;6.148;2023-06-01T07:24:11;12.90;99.90
52435;DHT22;38354;52.892;6.148;2023-06-01T07:26:37;13.00;99.90
52435;DHT22;38354;52.892;6.148;2023-06-01T07:29:02;13.00;99.90
52435;DHT22;38354;52.892;6.148;2023-06-01T07:31:28;12.90;99.90
52435;DHT22;38354;52.892;6.148;2023-06-01T07:33:54;13.00;99.90
52435;DHT22;38354;52.892;6.148;2023-06-01T07:36:22;13.00;99.90
52435;DHT22;38354;52.892;6.148;2023-06-01T07:38:49;13.00;99.90
52435;DHT22;38354;52.892;6.148;2023-06-01T07:41:16;13.10;99.90
52435;DHT22;38354;52.892;6.148;2023-06-01T07:43:42;13.00;99.90
52435;DHT22;38354;52.892;6.148;2023-06-01T07:46:07;13.10;99.90
52435;DHT22;38354;52.892;6.148;2023-06-01T07:48:33;13.10;99.90
52435;DHT22;38354;52.892;6.148;2023-06-01T07:51:03;13.10;99.90
52435;DHT22;38354;52.892;6.148;2023-06-01T07:53:28;13.20;99.90
52435;DHT22;38354;52.892;6.148;2023-06-01T07:55:54;13.20;99.90
52435;DHT22;38354;52.892;6.148;2023-06-01T07:58:20;13.20;99.90
52435;DHT22;38354;52.892;6.148;2023-06-01T08:00:46;13.20;99.90
52435;DHT22;38354;52.892;6.148;2023-06-01T08:03:12;13.20;99.90
52435;DHT22;38354;52.892;6.148;2023-06-01T08:05:40;13.20;99.90
52435;DHT22;38354;52.892;6.148;2023-06-01T08:08:07;13.30;99.90
52435;DHT22;38354;52.892;6.148;2023-06-01T08:10:33;13.30;99.90
52435;DHT22;38354;52.892;6.148;2023-06-01T08:12:58;13.30;99.90
52435;DHT22;38354;52.892;6.148;2023-06-01T08:15:24;13.30;99.90
52435;DHT22;38354;52.892;6.148;2023-06-01T08:17:51;13.40;99.90
52435;DHT22;38354;52.892;6.148;2023-06-01T08:20:17;13.40;99.90
52435;DHT22;38354;52.892;6.148;2023-06-01T08:22:47;13.40;99.90
52435;DHT22;38354;52.892;6.148;2023-06-01T08:25:13;13.40;99.90
52435;DHT22;38354;52.892;6.148;2023-06-01T08:27:39;13.40;99.90
52435;DHT22;38354;52.892;6.148;2023-06-01T08:30:09;13.50;99.90
52435;DHT22;38354;52.892;6.148;2023-06-01T08:32:35;13.50;99.90
52435;DHT22;38354;52.892;6.148;2023-06-01T08:35:00;13.50;99.90
52435;DHT22;38354;52.892;6.148;2023-06-01T08:37:26;13.50;99.90
52435;DHT22;38354;52.892;6.148;2023-06-01T08:39:52;13.50;99.90
52435;DHT22;38354;52.892;6.148;2023-06-01T08:42:33;13.60;99.90
52435;DHT22;38354;52.892;6.148;2023-06-01T08:45:04;13.60;99.90
52435;DHT22;38354;52.892;6.148;2023-06-01T08:47:31;13.70;99.90
52435;DHT22;38354;52.892;6.148;2023-06-01T08:50:01;13.70;99.90
52435;DHT22;38354;52.892;6.148;2023-06-01T08:52:28;13.70;99.90
52435;DHT22;38354;52.892;6.148;2023-06-01T08:55:01;13.70;99.90
52435;DHT22;38354;52.892;6.148;2023-06-01T08:57:28;13.80;99.90
52435;DHT22;38354;52.892;6.148;2023-06-01T08:59:58;13.70;99.90
52435;DHT22;38354;52.892;6.148;2023-06-01T09:02:25;13.70;99.90
52435;DHT22;38354;52.892;6.148;2023-06-01T09:04:51;13.80;99.90
52435;DHT22;38354;52.892;6.148;2023-06-01T09:07:17;13.80;99.90
52435;DHT22;38354;52.892;6.148;2023-06-01T09:09:44;13.80;99.90
52435;DHT22;38354;52.892;6.148;2023-06-01T09:12:27;13.70;99.90
52435;DHT22;38354;52.892;6.148;2023-06-01T09:15:11;13.60;99.90
52435;DHT22;38354;52.892;6.148;2023-06-01T09:17:39;13.60;99.90
52435;DHT22;38354;52.892;6.148;2023-06-01T09:20:05;13.70;99.90
52435;DHT22;38354;52.892;6.148;2023-06-01T09:22:41;13.70;99.90
52435;DHT22;38354;52.892;6.148;2023-06-01T09:25:08;13.70;99.90
52435;DHT22;38354;52.892;6.148;2023-06-01T09:27:44;13.80;99.90
52435;DHT22;38354;52.892;6.148;2023-06-01T09:30:11;14.00;99.90
52435;DHT22;38354;52.892;6.148;2023-06-01T09:32:36;14.10;99.90
52435;DHT22;38354;52.892;6.148;2023-06-01T09:35:02;14.10;99.90
52435;DHT22;38354;52.892;6.148;2023-06-01T09:37:28;14.00;99.90
52435;DHT22;38354;52.892;6.148;2023-06-01T09:39:54;13.90;99.90
52435;DHT22;38354;52.892;6.148;2023-06-01T09:42:31;13.80;99.90
52435;DHT22;38354;52.892;6.148;2023-06-01T09:45:17;13.70;99.90
52435;DHT22;38354;52.892;6.148;2023-06-01T09:47:43;13.60;99.90
52435;DHT22;38354;52.892;6.148;2023-06-01T09:50:10;13.50;99.90
52435;DHT22;38354;52.892;6.148;2023-06-01T09:52:36;13.60;99.90
52435;DHT22;38354;52.892;6.148;2023-06-01T09:55:07;13.50;99.90
52435;DHT22;38354;52.892;6.148;2023-06-01T09:57:34;13.50;99.90
52435;DHT22;38354;52.892;6.148;2023-06-01T10:00:01;13.40;99.90
52435;DHT22;38354;52.892;6.148;2023-06-01T10:02:32;13.40;99.90
52435;DHT22;38354;52.892;6.148;2023-06-01T10:04:59;13.40;99.90
52435;DHT22;38354;52.892;6.148;2023-06-01T10:07:30;13.40;99.90
52435;DHT22;38354;52.892;6.148;2023-06-01T10:09:58;13.40;99.90
52435;DHT22;38354;52.892;6.148;2023-06-01T10:12:27;13.40;99.90
52435;DHT22;38354;52.892;6.148;2023-06-01T10:14:55;13.50;99.90
52435;DHT22;38354;52.892;6.148;2023-06-01T10:17:21;13.50;99.90
52435;DHT22;38354;52.892;6.148;2023-06-01T10:19:48;13.50;99.90
52435;DHT22;38354;52.892;6.148;2023-06-01T10:22:14;13.50;99.90
52435;DHT22;38354;52.892;6.148;2023-06-01T10:24:43;13.50;99.90
52435;DHT22;38354;52.892;6.148;2023-06-01T10:27:18;13.50;99.90
52435;DHT22;38354;52.892;6.148;2023-06-01T10:29:46;13.50;99.90
52435;DHT22;38354;52.892;6.148;2023-06-01T10:35:06;13.60;99.90
52435;DHT22;38354;52.892;6.148;2023-06-01T10:37:32;13.60;99.90
52435;DHT22;38354;52.892;6.148;2023-06-01T10:42:47;13.60;99.90
52435;DHT22;38354;52.892;6.148;2023-06-01T10:47:59;13.70;99.90
52435;DHT22;38354;52.892;6.148;2023-06-01T10:50:25;13.70;99.90
52435;DHT22;38354;52.892;6.148;2023-06-01T10:52:51;13.70;99.90
52435;DHT22;38354;52.892;6.148;2023-06-01T10:55:20;13.80;99.90
52435;DHT22;38354;52.892;6.148;2023-06-01T10:57:46;13.80;99.90
52435;DHT22;38354;52.892;6.148;2023-06-01T11:00:23;13.90;99.90
52435;DHT22;38354;52.892;6.148;2023-06-01T11:03:02;13.90;99.90
52435;DHT22;38354;52.892;6.148;2023-06-01T11:05:41;13.80;99.90
52435;DHT22;38354;52.892;6.148;2023-06-01T11:13:36;13.90;99.90
52435;DHT22;38354;52.892;6.148;2023-06-01T11:21:19;14.00;99.90
52435;DHT22;38354;52.892;6.148;2023-06-01T11:23:47;14.10;99.90
52435;DHT22;38354;52.892;6.148;2023-06-01T11:26:14;14.20;99.90
52435;DHT22;38354;52.892;6.148;2023-06-01T11:28:44;14.30;99.90
52435;DHT22;38354;52.892;6.148;2023-06-01T11:31:12;14.30;99.90
52435;DHT22;38354;52.892;6.148;2023-06-01T11:33:39;14.30;99.90
52435;DHT22;38354;52.892;6.148;2023-06-01T11:36:07;14.30;99.90
52435;DHT22;38354;52.892;6.148;2023-06-01T11:38:40;14.30;99.90
52435;DHT22;38354;52.892;6.148;2023-06-01T11:41:06;14.40;99.90
52435;DHT22;38354;52.892;6.148;2023-06-01T11:43:33;14.40;99.90
52435;DHT22;38354;52.892;6.148;2023-06-01T11:46:03;14.40;99.90
52435;DHT22;38354;52.892;6.148;2023-06-01T11:48:28;14.50;99.90
52435;DHT22;38354;52.892;6.148;2023-06-01T11:50:55;14.60;99.90
52435;DHT22;38354;52.892;6.148;2023-06-01T11:53:24;14.60;99.90
52435;DHT22;38354;52.892;6.148;2023-06-01T11:55:51;14.60;99.90
52435;DHT22;38354;52.892;6.148;2023-06-01T11:58:27;14.70;99.90
52435;DHT22;38354;52.892;6.148;2023-06-01T12:00:55;14.70;99.90
52435;DHT22;38354;52.892;6.148;2023-06-01T12:03:20;14.70;99.90
52435;DHT22;38354;52.892;6.148;2023-06-01T12:05:46;14.60;99.90
52435;DHT22;38354;52.892;6.148;2023-06-01T12:08:23;14.70;99.90
52435;DHT22;38354;52.892;6.148;2023-06-01T12:10:50;14.70;99.90
52435;DHT22;38354;52.892;6.148;2023-06-01T12:13:18;14.80;99.90
52435;DHT22;38354;52.892;6.148;2023-06-01T12:15:44;14.80;99.90
52435;DHT22;38354;52.892;6.148;2023-06-01T12:18:10;14.90;99.90
52435;DHT22;38354;52.892;6.148;2023-06-01T12:20:38;15.00;99.90
52435;DHT22;38354;52.892;6.148;2023-06-01T12:28:23;15.10;99.90
52435;DHT22;38354;52.892;6.148;2023-06-01T12:31:08;15.20;99.90
52435;DHT22;38354;52.892;6.148;2023-06-01T12:33:36;15.20;99.90
52435;DHT22;38354;52.892;6.148;2023-06-01T12:36:06;15.10;99.90
52435;DHT22;38354;52.892;6.148;2023-06-01T12:38:52;15.10;99.90
52435;DHT22;38354;52.892;6.148;2023-06-01T12:41:18;15.20;99.90
52435;DHT22;38354;52.892;6.148;2023-06-01T12:43:45;15.20;99.90
52435;DHT22;38354;52.892;6.148;2023-06-01T12:46:18;15.20;99.90
52435;DHT22;38354;52.892;6.148;2023-06-01T12:48:45;15.10;99.90
52435;DHT22;38354;52.892;6.148;2023-06-01T12:51:12;15.10;99.90
52435;DHT22;38354;52.892;6.148;2023-06-01T12:53:38;15.00;99.90
52435;DHT22;38354;52.892;6.148;2023-06-01T12:56:05;15.00;99.90
52435;DHT22;38354;52.892;6.148;2023-06-01T12:58:32;15.00;99.90
52435;DHT22;38354;52.892;6.148;2023-06-01T13:00:58;15.00;99.90
52435;DHT22;38354;52.892;6.148;2023-06-01T13:03:23;15.00;99.90
52435;DHT22;38354;52.892;6.148;2023-06-01T13:05:49;15.00;99.90
52435;DHT22;38354;52.892;6.148;2023-06-01T13:08:17;15.10;99.90
52435;DHT22;38354;52.892;6.148;2023-06-01T13:10:43;15.10;99.90
52435;DHT22;38354;52.892;6.148;2023-06-01T13:13:09;15.10;99.90
52435;DHT22;38354;52.892;6.148;2023-06-01T13:15:42;15.20;99.90
52435;DHT22;38354;52.892;6.148;2023-06-01T13:18:08;15.20;99.90
52435;DHT22;38354;52.892;6.148;2023-06-01T13:20:35;15.10;99.90
52435;DHT22;38354;52.892;6.148;2023-06-01T13:23:01;15.10;99.90
52435;DHT22;38354;52.892;6.148;2023-06-01T13:25:27;15.00;99.90
52435;DHT22;38354;52.892;6.148;2023-06-01T13:27:53;15.00;99.90
52435;DHT22;38354;52.892;6.148;2023-06-01T13:30:18;14.90;99.90
52435;DHT22;38354;52.892;6.148;2023-06-01T13:32:44;14.90;99.90
52435;DHT22;38354;52.892;6.148;2023-06-01T13:35:10;14.90;99.90
52435;DHT22;38354;52.892;6.148;2023-06-01T13:37:37;14.90;99.90
52435;DHT22;38354;52.892;6.148;2023-06-01T13:40:03;14.80;99.90
52435;DHT22;38354;52.892;6.148;2023-06-01T13:42:31;14.70;99.90
52435;DHT22;38354;52.892;6.148;2023-06-01T13:44:58;14.60;99.90
52435;DHT22;38354;52.892;6.148;2023-06-01T13:47:24;14.50;99.90
52435;DHT22;38354;52.892;6.148;2023-06-01T13:49:50;14.50;99.90
52435;DHT22;38354;52.892;6.148;2023-06-01T13:52:16;14.40;99.90
52435;DHT22;38354;52.892;6.148;2023-06-01T13:54:42;14.40;99.90
52435;DHT22;38354;52.892;6.148;2023-06-01T13:57:09;14.40;99.90
52435;DHT22;38354;52.892;6.148;2023-06-01T13:59:35;14.40;99.90
52435;DHT22;38354;52.892;6.148;2023-06-01T14:02:04;14.40;99.90
52435;DHT22;38354;52.892;6.148;2023-06-01T14:04:31;14.40;99.90
52435;DHT22;38354;52.892;6.148;2023-06-01T14:06:56;14.40;99.90
52435;DHT22;38354;52.892;6.148;2023-06-01T14:09:23;14.30;99.90
52435;DHT22;38354;52.892;6.148;2023-06-01T14:11:49;14.20;99.90
52435;DHT22;38354;52.892;6.148;2023-06-01T14:14:15;14.20;99.90
52435;DHT22;38354;52.892;6.148;2023-06-01T14:16:41;14.20;99.90
52435;DHT22;38354;52.892;6.148;2023-06-01T14:19:06;14.20;99.90
52435;DHT22;38354;52.892;6.148;2023-06-01T14:21:32;14.20;99.90
52435;DHT22;38354;52.892;6.148;2023-06-01T14:24:00;14.20;99.90
52435;DHT22;38354;52.892;6.148;2023-06-01T14:26:26;14.20;99.90
52435;DHT22;38354;52.892;6.148;2023-06-01T14:28:53;14.30;99.90
52435;DHT22;38354;52.892;6.148;2023-06-01T14:31:19;14.20;99.90
52435;DHT22;38354;52.892;6.148;2023-06-01T14:33:48;14.20;99.90
52435;DHT22;38354;52.892;6.148;2023-06-01T14:36:14;14.10;99.90
52435;DHT22;38354;52.892;6.148;2023-06-01T14:38:39;14.10;99.90
52435;DHT22;38354;52.892;6.148;2023-06-01T14:41:06;14.00;99.90
52435;DHT22;38354;52.892;6.148;2023-06-01T14:43:31;14.10;99.90
52435;DHT22;38354;52.892;6.148;2023-06-01T14:45:57;14.20;99.90
52435;DHT22;38354;52.892;6.148;2023-06-01T14:48:23;14.20;99.90
52435;DHT22;38354;52.892;6.148;2023-06-01T14:50:49;14.20;99.90
52435;DHT22;38354;52.892;6.148;2023-06-01T14:53:15;14.20;99.90
52435;DHT22;38354;52.892;6.148;2023-06-01T14:55:41;14.30;99.90
52435;DHT22;38354;52.892;6.148;2023-06-01T14:58:07;14.30;99.90
52435;DHT22;38354;52.892;6.148;2023-06-01T15:00:33;14.20;99.90
52435;DHT22;38354;52.892;6.148;2023-06-01T15:03:00;14.20;99.90
52435;DHT22;38354;52.892;6.148;2023-06-01T15:05:27;14.20;99.90
52435;DHT22;38354;52.892;6.148;2023-06-01T15:07:52;14.20;99.90
52435;DHT22;38354;52.892;6.148;2023-06-01T15:10:18;14.10;99.90
52435;DHT22;38354;52.892;6.148;2023-06-01T15:12:44;14.10;99.90
52435;DHT22;38354;52.892;6.148;2023-06-01T15:15:10;14.20;99.90
52435;DHT22;38354;52.892;6.148;2023-06-01T15:17:36;14.20;99.90
52435;DHT22;38354;52.892;6.148;2023-06-01T15:20:02;14.20;99.90
52435;DHT22;38354;52.892;6.148;2023-06-01T15:22:27;14.30;99.90
52435;DHT22;38354;52.892;6.148;2023-06-01T15:24:53;14.30;99.90
52435;DHT22;38354;52.892;6.148;2023-06-01T15:27:19;14.30;99.90
52435;DHT22;38354;52.892;6.148;2023-06-01T15:29:45;14.30;99.90
52435;DHT22;38354;52.892;6.148;2023-06-01T15:32:11;14.40;99.90
52435;DHT22;38354;52.892;6.148;2023-06-01T15:34:37;14.40;99.90
52435;DHT22;38354;52.892;6.148;2023-06-01T15:37:07;14.30;99.90
52435;DHT22;38354;52.892;6.148;2023-06-01T15:39:37;14.30;99.90
52435;DHT22;38354;52.892;6.148;2023-06-01T15:42:08;14.30;99.90
52435;DHT22;38354;52.892;6.148;2023-06-01T15:44:39;14.30;99.90
52435;DHT22;38354;52.892;6.148;2023-06-01T15:47:05;14.30;99.90
52435;DHT22;38354;52.892;6.148;2023-06-01T15:49:31;14.30;99.90
52435;DHT22;38354;52.892;6.148;2023-06-01T15:51:57;14.20;99.90
52435;DHT22;38354;52.892;6.148;2023-06-01T15:54:22;14.20;99.90
52435;DHT22;38354;52.892;6.148;2023-06-01T15:56:48;14.20;99.90
52435;DHT22;38354;52.892;6.148;2023-06-01T15:59:13;14.20;99.90
52435;DHT22;38354;52.892;6.148;2023-06-01T16:01:39;14.20;99.90
52435;DHT22;38354;52.892;6.148;2023-06-01T16:04:05;14.10;99.90
52435;DHT22;38354;52.892;6.148;2023-06-01T16:06:30;14.10;99.90
52435;DHT22;38354;52.892;6.148;2023-06-01T16:08:57;14.00;99.90
52435;DHT22;38354;52.892;6.148;2023-06-01T16:11:24;14.00;99.90
52435;DHT22;38354;52.892;6.148;2023-06-01T16:13:50;13.90;99.90
52435;DHT22;38354;52.892;6.148;2023-06-01T16:16:16;13.90;99.90
52435;DHT22;38354;52.892;6.148;2023-06-01T16:18:41;13.80;99.90
52435;DHT22;38354;52.892;6.148;2023-06-01T16:21:07;13.80;99.90
52435;DHT22;38354;52.892;6.148;2023-06-01T16:23:33;13.70;99.90
52435;DHT22;38354;52.892;6.148;2023-06-01T16:25:58;13.70;99.90
52435;DHT22;38354;52.892;6.148;2023-06-01T16:28:24;13.60;99.90
52435;DHT22;38354;52.892;6.148;2023-06-01T16:30:50;13.60;99.90
52435;DHT22;38354;52.892;6.148;2023-06-01T16:33:15;13.60;99.90
52435;DHT22;38354;52.892;6.148;2023-06-01T16:35:41;13.60;99.90
52435;DHT22;38354;52.892;6.148;2023-06-01T16:38:07;13.60;99.90
52435;DHT22;38354;52.892;6.148;2023-06-01T16:40:32;13.60;99.90
52435;DHT22;38354;52.892;6.148;2023-06-01T16:42:58;13.60;99.90
52435;DHT22;38354;52.892;6.148;2023-06-01T16:45:24;13.60;99.90
52435;DHT22;38354;52.892;6.148;2023-06-01T16:47:49;13.70;99.90
52435;DHT22;38354;52.892;6.148;2023-06-01T16:50:15;13.60;99.90
52435;DHT22;38354;52.892;6.148;2023-06-01T16:52:40;13.60;99.90
52435;DHT22;38354;52.892;6.148;2023-06-01T16:55:06;13.60;99.90
52435;DHT22;38354;52.892;6.148;2023-06-01T16:57:32;13.60;99.90
52435;DHT22;38354;52.892;6.148;2023-06-01T16:59:58;13.50;99.90
52435;DHT22;38354;52.892;6.148;2023-06-01T17:02:23;13.50;99.90
52435;DHT22;38354;52.892;6.148;2023-06-01T17:04:49;13.40;99.90
52435;DHT22;38354;52.892;6.148;2023-06-01T17:07:15;13.40;99.90
52435;DHT22;38354;52.892;6.148;2023-06-01T17:09:41;13.40;99.90
52435;DHT22;38354;52.892;6.148;2023-06-01T17:12:07;13.40;99.90
52435;DHT22;38354;52.892;6.148;2023-06-01T17:14:38;13.50;99.90
52435;DHT22;38354;52.892;6.148;2023-06-01T17:17:03;13.50;99.90
52435;DHT22;38354;52.892;6.148;2023-06-01T17:19:29;13.50;99.90
52435;DHT22;38354;52.892;6.148;2023-06-01T17:21:55;13.50;99.90
52435;DHT22;38354;52.892;6.148;2023-06-01T17:24:20;13.50;99.90
52435;DHT22;38354;52.892;6.148;2023-06-01T17:26:46;13.50;99.90
52435;DHT22;38354;52.892;6.148;2023-06-01T17:29:12;13.50;99.90
52435;DHT22;38354;52.892;6.148;2023-06-01T17:31:37;13.50;99.90
52435;DHT22;38354;52.892;6.148;2023-06-01T17:34:03;13.50;99.90
52435;DHT22;38354;52.892;6.148;2023-06-01T17:36:28;13.50;99.90
52435;DHT22;38354;52.892;6.148;2023-06-01T17:38:54;13.40;99.90
52435;DHT22;38354;52.892;6.148;2023-06-01T17:41:20;13.40;99.90
52435;DHT22;38354;52.892;6.148;2023-06-01T17:43:47;13.40;99.90
52435;DHT22;38354;52.892;6.148;2023-06-01T17:46:12;13.30;99.90
52435;DHT22;38354;52.892;6.148;2023-06-01T17:48:38;13.30;99.90
52435;DHT22;38354;52.892;6.148;2023-06-01T17:51:04;13.20;99.90
52435;DHT22;38354;52.892;6.148;2023-06-01T17:53:29;13.20;99.90
52435;DHT22;38354;52.892;6.148;2023-06-01T17:55:55;13.30;99.90
52435;DHT22;38354;52.892;6.148;2023-06-01T17:58:21;13.20;99.90
52435;DHT22;38354;52.892;6.148;2023-06-01T18:00:47;13.20;99.90
52435;DHT22;38354;52.892;6.148;2023-06-01T18:03:12;13.20;99.90
52435;DHT22;38354;52.892;6.148;2023-06-01T18:05:38;13.10;99.90
52435;DHT22;38354;52.892;6.148;2023-06-01T18:08:03;13.10;99.90
52435;DHT22;38354;52.892;6.148;2023-06-01T18:10:29;13.10;99.90
52435;DHT22;38354;52.892;6.148;2023-06-01T18:12:55;13.10;99.90
52435;DHT22;38354;52.892;6.148;2023-06-01T18:15:20;13.00;99.90
52435;DHT22;38354;52.892;6.148;2023-06-01T18:17:46;13.00;99.90
52435;DHT22;38354;52.892;6.148;2023-06-01T18:20:12;13.00;99.90
52435;DHT22;38354;52.892;6.148;2023-06-01T18:22:37;12.90;99.90
52435;DHT22;38354;52.892;6.148;2023-06-01T18:25:03;12.90;99.90
52435;DHT22;38354;52.892;6.148;2023-06-01T18:27:29;12.80;99.90
52435;DHT22;38354;52.892;6.148;2023-06-01T18:29:55;12.80;99.90
52435;DHT22;38354;52.892;6.148;2023-06-01T18:32:21;12.80;99.90
52435;DHT22;38354;52.892;6.148;2023-06-01T18:34:46;12.80;99.90
52435;DHT22;38354;52.892;6.148;2023-06-01T18:37:12;12.80;99.90
52435;DHT22;38354;52.892;6.148;2023-06-01T18:39:38;12.80;99.90
52435;DHT22;38354;52.892;6.148;2023-06-01T18:42:04;12.80;99.90
52435;DHT22;38354;52.892;6.148;2023-06-01T18:44:29;12.80;99.90
52435;DHT22;38354;52.892;6.148;2023-06-01T18:46:55;12.70;99.90
52435;DHT22;38354;52.892;6.148;2023-06-01T18:49:21;12.70;99.90
52435;DHT22;38354;52.892;6.148;2023-06-01T18:51:47;12.60;99.90